createdAt,value
2023-04-19T00:00:06.212Z,8.79
2023-04-19T00:01:06.181Z,8.73
2023-04-19T00:02:06.291Z,8.76
2023-04-19T00:03:06.431Z,8.73
2023-04-19T00:04:06.363Z,8.74
2023-04-19T00:05:06.389Z,8.73
2023-04-19T00:06:06.122Z,8.70
2023-04-19T00:07:06.091Z,8.68
2023-04-19T00:08:06.063Z,8.62
2023-04-19T00:09:06.065Z,8.62
2023-04-19T00:10:06.060Z,8.59
2023-04-19T00:11:06.097Z,8.59
2023-04-19T00:12:06.024Z,8.58
2023-04-19T00:13:06.404Z,8.56
2023-04-19T00:14:06.022Z,8.55
2023-04-19T00:15:05.995Z,8.55
2023-04-19T00:16:06.047Z,8.48
2023-04-19T00:17:06.066Z,8.45
2023-04-19T00:18:06.010Z,8.45
2023-04-19T00:19:05.992Z,8.41
2023-04-19T00:20:05.940Z,8.41
2023-04-19T00:21:05.980Z,8.40
2023-04-19T00:22:05.924Z,8.41
2023-04-19T00:23:05.930Z,8.38
2023-04-19T00:24:05.928Z,8.40
2023-04-19T00:25:05.897Z,8.38
2023-04-19T00:26:05.875Z,8.37
2023-04-19T00:27:05.900Z,8.36
2023-04-19T00:28:06.012Z,8.33
2023-04-19T00:29:05.862Z,8.33
2023-04-19T00:30:05.870Z,8.33
2023-04-19T00:31:05.937Z,8.29
2023-04-19T00:32:05.856Z,8.29
2023-04-19T00:33:05.879Z,8.33
2023-04-19T00:34:05.809Z,8.36
2023-04-19T00:35:05.823Z,8.43
2023-04-19T00:36:05.765Z,8.44
2023-04-19T00:37:05.763Z,8.44
2023-04-19T00:38:05.787Z,8.44
2023-04-19T00:39:05.744Z,8.45
2023-04-19T00:40:05.751Z,8.44
2023-04-19T00:41:05.722Z,8.44
2023-04-19T00:42:05.719Z,8.43
2023-04-19T00:43:05.762Z,8.41
2023-04-19T00:44:06.754Z,8.41
2023-04-19T00:45:05.676Z,8.43
2023-04-19T00:46:05.718Z,8.44
2023-04-19T00:47:05.669Z,8.48
2023-04-19T00:48:05.691Z,8.53
2023-04-19T00:49:05.643Z,8.53
2023-04-19T00:50:05.618Z,8.53
2023-04-19T00:51:05.622Z,8.55
2023-04-19T00:52:05.610Z,8.52
2023-04-19T00:53:05.633Z,8.56
2023-04-19T00:54:05.578Z,8.53
2023-04-19T00:55:05.579Z,8.61
2023-04-19T00:56:05.572Z,8.61
2023-04-19T00:57:05.590Z,8.61
2023-04-19T00:58:05.531Z,8.61
2023-04-19T00:59:05.545Z,8.59
2023-04-19T01:00:05.552Z,8.56
2023-04-19T01:01:05.584Z,8.53
2023-04-19T01:02:05.526Z,8.48
2023-04-19T01:03:05.568Z,8.47
2023-04-19T01:04:05.595Z,8.45
2023-04-19T01:05:05.573Z,8.43
2023-04-19T01:06:05.437Z,8.38
2023-04-19T01:07:05.453Z,8.37
2023-04-19T01:08:05.435Z,8.37
2023-04-19T01:09:05.423Z,8.40
2023-04-19T01:10:05.456Z,8.37
2023-04-19T01:11:05.421Z,8.34
2023-04-19T01:12:05.381Z,8.25
2023-04-19T01:13:05.392Z,8.25
2023-04-19T01:14:05.364Z,8.25
2023-04-19T01:15:07.391Z,8.23
2023-04-19T01:16:05.359Z,8.23
2023-04-19T01:17:05.354Z,8.20
2023-04-19T01:18:05.448Z,8.16
2023-04-19T01:19:05.336Z,8.15
2023-04-19T01:20:05.307Z,8.12
2023-04-19T01:21:05.293Z,8.12
2023-04-19T01:22:15.329Z,8.08
2023-04-19T01:23:05.517Z,8.08
2023-04-19T01:24:05.243Z,8.05
2023-04-19T01:25:05.281Z,8.05
2023-04-19T01:26:05.250Z,8.05
2023-04-19T01:27:11.564Z,8.05
2023-04-19T01:28:05.213Z,8.08
2023-04-19T01:29:05.222Z,8.05
2023-04-19T01:30:05.188Z,8.07
2023-04-19T01:31:05.313Z,8.07
2023-04-19T01:32:15.241Z,8.08
2023-04-19T01:33:05.207Z,8.05
2023-04-19T01:34:05.230Z,8.07
2023-04-19T01:35:05.152Z,8.05
2023-04-19T01:36:15.185Z,8.01
2023-04-19T01:37:05.095Z,7.97
2023-04-19T01:38:16.358Z,7.97
2023-04-19T01:39:05.111Z,7.92
2023-04-19T01:40:05.090Z,7.92
2023-04-19T01:41:05.120Z,7.87
2023-04-19T01:42:05.098Z,7.86
2023-04-19T01:43:05.075Z,7.85
2023-04-19T01:44:05.093Z,7.83
2023-04-19T01:45:05.079Z,7.79
2023-04-19T01:46:05.665Z,7.80
2023-04-19T01:47:05.095Z,7.83
2023-04-19T01:48:05.041Z,7.87
2023-04-19T01:49:05.031Z,7.87
2023-04-19T01:50:04.999Z,7.85
2023-04-19T01:51:05.054Z,7.83
2023-04-19T01:52:04.970Z,7.83
2023-04-19T01:53:05.024Z,7.79
2023-04-19T01:54:04.976Z,7.74
2023-04-19T01:55:04.962Z,7.71
2023-04-19T01:56:04.928Z,7.68
2023-04-19T01:57:04.929Z,7.61
2023-04-19T01:58:04.927Z,7.58
2023-04-19T01:59:04.905Z,7.57
2023-04-19T02:00:04.889Z,7.57
2023-04-19T02:01:04.946Z,7.58
2023-04-19T02:02:04.988Z,7.64
2023-04-19T02:03:05.014Z,7.67
2023-04-19T02:04:05.112Z,7.67
2023-04-19T02:05:04.842Z,7.68
2023-04-19T02:06:04.849Z,7.71
2023-04-19T02:07:04.844Z,7.71
2023-04-19T02:08:04.819Z,7.74
2023-04-19T02:09:04.840Z,7.77
2023-04-19T02:10:04.773Z,7.75
2023-04-19T02:11:04.753Z,7.74
2023-04-19T02:12:04.740Z,7.69
2023-04-19T02:13:04.747Z,7.71
2023-04-19T02:14:04.736Z,7.68
2023-04-19T02:15:04.703Z,7.68
2023-04-19T02:16:04.736Z,7.64
2023-04-19T02:17:06.100Z,7.63
2023-04-19T02:18:04.776Z,7.61
2023-04-19T02:19:04.707Z,7.57
2023-04-19T02:20:04.734Z,7.53
2023-04-19T02:21:04.679Z,7.50
2023-04-19T02:22:04.666Z,7.48
2023-04-19T02:23:04.598Z,7.43
2023-04-19T02:24:04.649Z,7.45
2023-04-19T02:25:04.636Z,7.45
2023-04-19T02:26:04.603Z,7.45
2023-04-19T02:27:04.593Z,7.42
2023-04-19T02:28:04.611Z,7.43
2023-04-19T02:29:06.364Z,7.42
2023-04-19T02:30:04.574Z,7.42
2023-04-19T02:31:04.561Z,7.50
2023-04-19T02:32:04.670Z,7.57
2023-04-19T02:33:04.585Z,7.57
2023-04-19T02:34:04.506Z,7.55
2023-04-19T02:35:04.518Z,7.49
2023-04-19T02:36:04.486Z,7.46
2023-04-19T02:37:04.500Z,7.40
2023-04-19T02:38:04.493Z,7.39
2023-04-19T02:39:04.476Z,7.31
2023-04-19T02:40:04.484Z,7.28
2023-04-19T02:41:04.497Z,7.27
2023-04-19T02:42:04.456Z,7.21
2023-04-19T02:43:04.415Z,7.13
2023-04-19T02:44:04.445Z,7.09
2023-04-19T02:45:04.374Z,7.03
2023-04-19T02:46:04.430Z,6.98
2023-04-19T02:47:04.368Z,6.91
2023-04-19T02:48:05.631Z,6.88
2023-04-19T02:49:04.335Z,6.87
2023-04-19T02:50:04.345Z,6.87
2023-04-19T02:51:04.352Z,6.87
2023-04-19T02:52:04.315Z,6.84
2023-04-19T02:53:04.339Z,6.76
2023-04-19T02:54:04.316Z,6.73
2023-04-19T02:55:04.272Z,6.64
2023-04-19T02:56:04.302Z,6.59
2023-04-19T02:57:04.292Z,6.56
2023-04-19T02:58:04.278Z,6.54
2023-04-19T02:59:04.240Z,6.51
2023-04-19T03:00:04.242Z,6.48
2023-04-19T03:01:04.282Z,6.52
2023-04-19T03:02:04.280Z,6.52
2023-04-19T03:03:04.425Z,6.49
2023-04-19T03:04:04.216Z,6.46
2023-04-19T03:05:04.188Z,6.46
2023-04-19T03:06:04.238Z,6.44
2023-04-19T03:07:04.162Z,6.46
2023-04-19T03:08:04.152Z,6.48
2023-04-19T03:09:04.147Z,6.49
2023-04-19T03:10:04.198Z,6.51
2023-04-19T03:11:04.105Z,6.51
2023-04-19T03:12:04.121Z,6.54
2023-04-19T03:13:04.094Z,6.56
2023-04-19T03:14:04.142Z,6.58
2023-04-19T03:15:04.077Z,6.61
2023-04-19T03:16:04.081Z,6.58
2023-04-19T03:17:04.093Z,6.58
2023-04-19T03:18:04.255Z,6.56
2023-04-19T03:19:04.131Z,6.55
2023-04-19T03:20:04.075Z,6.51
2023-04-19T03:21:04.024Z,6.46
2023-04-19T03:22:03.990Z,6.40
2023-04-19T03:23:03.981Z,6.38
2023-04-19T03:24:04.071Z,6.37
2023-04-19T03:25:03.984Z,6.36
2023-04-19T03:26:04.033Z,6.34
2023-04-19T03:27:03.958Z,6.28
2023-04-19T03:28:03.931Z,6.28
2023-04-19T03:29:03.908Z,6.30
2023-04-19T03:30:03.925Z,6.28
2023-04-19T03:31:03.940Z,6.27
2023-04-19T03:32:03.900Z,6.28
2023-04-19T03:33:03.926Z,6.28
2023-04-19T03:34:03.864Z,6.25
2023-04-19T03:35:03.864Z,6.21
2023-04-19T03:36:03.911Z,6.18
2023-04-19T03:37:03.832Z,6.15
2023-04-19T03:38:03.832Z,6.15
2023-04-19T03:39:03.833Z,6.09
2023-04-19T03:40:03.821Z,6.04
2023-04-19T03:41:03.759Z,6.01
2023-04-19T03:42:03.787Z,6.00
2023-04-19T03:43:03.762Z,5.99
2023-04-19T03:44:03.764Z,5.99
2023-04-19T03:45:03.716Z,5.96
2023-04-19T03:46:03.776Z,5.93
2023-04-19T03:47:03.744Z,5.94
2023-04-19T03:48:03.803Z,5.91
2023-04-19T03:49:03.706Z,5.91
2023-04-19T03:50:03.721Z,5.90
2023-04-19T03:51:03.711Z,5.94
2023-04-19T03:52:03.680Z,5.91
2023-04-19T03:53:03.648Z,5.89
2023-04-19T03:54:03.677Z,5.89
2023-04-19T03:55:03.637Z,5.85
2023-04-19T03:56:03.667Z,5.83
2023-04-19T03:57:04.085Z,5.82
2023-04-19T03:58:03.614Z,5.75
2023-04-19T03:59:03.625Z,5.72
2023-04-19T04:00:03.717Z,5.74
2023-04-19T04:01:03.588Z,5.76
2023-04-19T04:02:03.760Z,5.75
2023-04-19T04:03:03.886Z,5.75
2023-04-19T04:04:05.129Z,5.75
2023-04-19T04:05:03.675Z,5.76
2023-04-19T04:06:03.570Z,5.71
2023-04-19T04:07:03.558Z,5.68
2023-04-19T04:08:03.550Z,5.67
2023-04-19T04:09:04.474Z,5.64
2023-04-19T04:10:03.500Z,5.64
2023-04-19T04:11:03.558Z,5.60
2023-04-19T04:12:03.472Z,5.60
2023-04-19T04:13:03.509Z,5.60
2023-04-19T04:14:03.516Z,5.60
2023-04-19T04:15:03.502Z,5.61
2023-04-19T04:16:03.458Z,5.60
2023-04-19T04:17:03.416Z,5.60
2023-04-19T04:18:03.473Z,5.57
2023-04-19T04:19:03.412Z,5.58
2023-04-19T04:20:03.419Z,5.57
2023-04-19T04:21:03.537Z,5.54
2023-04-19T04:22:03.369Z,5.54
2023-04-19T04:23:03.380Z,5.49
2023-04-19T04:24:03.341Z,5.45
2023-04-19T04:25:03.339Z,5.45
2023-04-19T04:26:03.371Z,5.46
2023-04-19T04:27:03.419Z,5.45
2023-04-19T04:28:03.316Z,5.48
2023-04-19T04:29:03.415Z,5.48
2023-04-19T04:30:03.326Z,5.48
2023-04-19T04:31:03.274Z,5.45
2023-04-19T04:32:03.355Z,5.43
2023-04-19T04:33:03.347Z,5.43
2023-04-19T04:34:03.283Z,5.40
2023-04-19T04:35:03.354Z,5.42
2023-04-19T04:36:03.268Z,5.40
2023-04-19T04:37:03.247Z,5.40
2023-04-19T04:38:06.400Z,5.39
2023-04-19T04:39:04.283Z,5.38
2023-04-19T04:40:03.209Z,5.30
2023-04-19T04:41:03.255Z,5.22
2023-04-19T04:42:03.178Z,5.18
2023-04-19T04:43:03.203Z,5.10
2023-04-19T04:44:11.452Z,5.06
2023-04-19T04:45:04.127Z,5.00
2023-04-19T04:46:03.343Z,4.97
2023-04-19T04:47:03.126Z,4.94
2023-04-19T04:48:03.235Z,4.91
2023-04-19T04:49:03.115Z,4.91
2023-04-19T04:50:03.132Z,4.92
2023-04-19T04:51:03.161Z,4.97
2023-04-19T04:52:03.142Z,4.99
2023-04-19T04:53:03.068Z,4.99
2023-04-19T04:54:03.128Z,4.99
2023-04-19T04:55:03.050Z,4.99
2023-04-19T04:56:03.108Z,4.99
2023-04-19T04:57:03.085Z,4.99
2023-04-19T04:58:03.038Z,4.97
2023-04-19T04:59:03.038Z,4.97
2023-04-19T05:00:03.013Z,4.99
2023-04-19T05:01:03.165Z,4.99
2023-04-19T05:02:03.016Z,4.99
2023-04-19T05:03:03.470Z,4.97
2023-04-19T05:04:03.022Z,4.96
2023-04-19T05:05:02.943Z,4.96
2023-04-19T05:06:02.968Z,4.94
2023-04-19T05:07:02.922Z,4.94
2023-04-19T05:08:02.897Z,4.92
2023-04-19T05:09:03.052Z,4.92
2023-04-19T05:10:02.970Z,4.99
2023-04-19T05:11:03.164Z,4.96
2023-04-19T05:12:02.915Z,4.99
2023-04-19T05:13:02.865Z,4.99
2023-04-19T05:14:02.873Z,4.96
2023-04-19T05:15:02.903Z,4.92
2023-04-19T05:16:03.008Z,4.92
2023-04-19T05:17:03.642Z,4.91
2023-04-19T05:18:02.871Z,4.89
2023-04-19T05:19:02.762Z,4.91
2023-04-19T05:20:02.760Z,4.92
2023-04-19T05:21:03.485Z,4.96
2023-04-19T05:22:02.743Z,4.99
2023-04-19T05:23:02.845Z,5.00
2023-04-19T05:24:02.713Z,5.00
2023-04-19T05:25:02.676Z,5.02
2023-04-19T05:26:02.710Z,5.03
2023-04-19T05:27:02.664Z,5.04
2023-04-19T05:28:02.722Z,5.06
2023-04-19T05:29:02.665Z,5.07
2023-04-19T05:30:02.638Z,5.10
2023-04-19T05:31:02.798Z,5.10
2023-04-19T05:32:02.621Z,5.13
2023-04-19T05:33:02.736Z,5.17
2023-04-19T05:34:02.666Z,5.15
2023-04-19T05:35:02.630Z,5.18
2023-04-19T05:36:02.624Z,5.20
2023-04-19T05:37:02.566Z,5.20
2023-04-19T05:38:02.567Z,5.21
2023-04-19T05:39:02.646Z,5.25
2023-04-19T05:40:02.550Z,5.25
2023-04-19T05:41:02.586Z,5.25
2023-04-19T05:42:02.529Z,5.28
2023-04-19T05:43:02.563Z,5.30
2023-04-19T05:44:02.521Z,5.30
2023-04-19T05:45:04.066Z,5.33
2023-04-19T05:46:02.571Z,5.33
2023-04-19T05:47:02.487Z,5.36
2023-04-19T05:48:02.523Z,5.42
2023-04-19T05:49:02.453Z,5.42
2023-04-19T05:50:02.451Z,5.45
2023-04-19T05:51:02.446Z,5.46
2023-04-19T05:52:02.454Z,5.46
2023-04-19T05:53:02.401Z,5.51
2023-04-19T05:54:02.442Z,5.54
2023-04-19T05:55:02.343Z,5.53
2023-04-19T05:56:02.391Z,5.57
2023-04-19T05:57:02.363Z,5.58
2023-04-19T05:58:02.394Z,5.60
2023-04-19T05:59:02.322Z,5.63
2023-04-19T06:00:02.728Z,5.65
2023-04-19T06:01:02.400Z,5.68
2023-04-19T06:02:02.517Z,5.72
2023-04-19T06:03:02.552Z,5.79
2023-04-19T06:04:02.591Z,5.82
2023-04-19T06:05:04.900Z,5.91
2023-04-19T06:06:03.331Z,5.94
2023-04-19T06:07:04.399Z,6.00
2023-04-19T06:08:03.110Z,6.08
2023-04-19T06:09:02.305Z,6.14
2023-04-19T06:10:02.253Z,6.21
2023-04-19T06:11:08.260Z,6.22
2023-04-19T06:12:03.270Z,6.31
2023-04-19T06:13:02.206Z,6.37
2023-04-19T06:14:02.207Z,6.41
2023-04-19T06:15:02.195Z,6.48
2023-04-19T06:16:02.241Z,6.51
2023-04-19T06:17:02.137Z,6.51
2023-04-19T06:18:02.232Z,6.52
2023-04-19T06:19:02.129Z,6.54
2023-04-19T06:20:02.112Z,6.55
2023-04-19T06:21:02.185Z,6.58
2023-04-19T06:22:02.111Z,6.59
2023-04-19T06:23:02.731Z,6.64
2023-04-19T06:24:02.081Z,6.67
2023-04-19T06:25:02.408Z,6.69
2023-04-19T06:26:02.039Z,6.71
2023-04-19T06:27:02.132Z,6.76
2023-04-19T06:28:02.057Z,6.77
2023-04-19T06:29:02.034Z,6.80
2023-04-19T06:30:01.995Z,6.84
2023-04-19T06:31:02.011Z,6.88
2023-04-19T06:32:02.074Z,6.91
2023-04-19T06:33:02.006Z,6.89
2023-04-19T06:34:01.972Z,6.89
2023-04-19T06:35:01.978Z,6.92
2023-04-19T06:36:01.953Z,6.91
2023-04-19T06:37:01.938Z,6.85
2023-04-19T06:38:01.937Z,6.77
2023-04-19T06:39:01.935Z,6.74
2023-04-19T06:40:01.928Z,6.77
2023-04-19T06:41:01.943Z,6.76
2023-04-19T06:42:01.866Z,6.77
2023-04-19T06:43:01.988Z,6.74
2023-04-19T06:44:01.863Z,6.71
2023-04-19T06:45:01.844Z,6.71
2023-04-19T06:46:02.009Z,6.73
2023-04-19T06:47:01.863Z,6.76
2023-04-19T06:48:01.913Z,6.77
2023-04-19T06:49:01.851Z,6.77
2023-04-19T06:50:01.793Z,6.81
2023-04-19T06:51:01.799Z,6.80
2023-04-19T06:52:01.807Z,6.84
2023-04-19T06:53:04.102Z,6.88
2023-04-19T06:54:01.805Z,6.89
2023-04-19T06:55:01.763Z,6.91
2023-04-19T06:56:01.803Z,6.94
2023-04-19T06:57:01.782Z,6.94
2023-04-19T06:58:01.859Z,6.95
2023-04-19T06:59:01.807Z,7.02
2023-04-19T07:00:01.760Z,7.05
2023-04-19T07:01:01.755Z,7.07
2023-04-19T07:02:01.705Z,7.13
2023-04-19T07:03:01.813Z,7.17
2023-04-19T07:04:01.885Z,7.21
2023-04-19T07:05:01.644Z,7.25
2023-04-19T07:06:01.679Z,7.32
2023-04-19T07:07:01.641Z,7.37
2023-04-19T07:08:01.606Z,7.37
2023-04-19T07:09:01.649Z,7.34
2023-04-19T07:10:01.591Z,7.34
2023-04-19T07:11:01.722Z,7.37
2023-04-19T07:12:01.545Z,7.42
2023-04-19T07:13:01.559Z,7.43
2023-04-19T07:14:01.547Z,7.43
2023-04-19T07:15:01.553Z,7.46
2023-04-19T07:16:01.619Z,7.52
2023-04-19T07:17:01.652Z,7.49
2023-04-19T07:18:01.536Z,7.52
2023-04-19T07:19:01.483Z,7.57
2023-04-19T07:20:01.482Z,7.58
2023-04-19T07:21:02.196Z,7.60
2023-04-19T07:22:01.525Z,7.61
2023-04-19T07:23:01.445Z,7.64
2023-04-19T07:24:01.439Z,7.69
2023-04-19T07:25:01.454Z,7.69
2023-04-19T07:26:01.432Z,7.75
2023-04-19T07:27:01.547Z,7.83
2023-04-19T07:28:11.402Z,7.92
2023-04-19T07:29:02.136Z,8.04
2023-04-19T07:30:01.351Z,8.11
2023-04-19T07:31:03.125Z,8.20
2023-04-19T07:32:01.383Z,8.28
2023-04-19T07:33:01.380Z,8.38
2023-04-19T07:34:01.324Z,8.38
2023-04-19T07:35:01.337Z,8.48
2023-04-19T07:36:01.340Z,8.61
2023-04-19T07:37:01.296Z,8.76
2023-04-19T07:38:01.267Z,8.77
2023-04-19T07:39:01.287Z,8.84
2023-04-19T07:40:01.260Z,8.95
2023-04-19T07:41:01.244Z,9.08
2023-04-19T07:42:01.227Z,9.20
2023-04-19T07:43:01.239Z,9.35
2023-04-19T07:44:01.282Z,9.54
2023-04-19T07:45:01.197Z,9.79
2023-04-19T07:46:01.224Z,9.97
2023-04-19T07:47:01.220Z,10.25
2023-04-19T07:48:01.199Z,10.60
2023-04-19T07:49:01.168Z,10.82
2023-04-19T07:50:01.149Z,10.89
2023-04-19T07:51:01.198Z,10.81
2023-04-19T07:52:01.205Z,10.64
2023-04-19T07:53:01.122Z,10.55
2023-04-19T07:54:01.105Z,10.44
2023-04-19T07:55:01.081Z,10.64
2023-04-19T07:56:01.090Z,10.91
2023-04-19T07:57:01.108Z,11.58
2023-04-19T07:58:01.198Z,12.09
2023-04-19T07:59:08.619Z,12.32
2023-04-19T08:00:02.025Z,12.77
2023-04-19T08:01:01.085Z,12.97
2023-04-19T08:02:01.136Z,13.64
2023-04-19T08:03:01.186Z,14.10
2023-04-19T08:04:01.349Z,14.00
2023-04-19T08:05:01.257Z,14.27
2023-04-19T08:06:00.965Z,14.42
2023-04-19T08:07:00.956Z,15.06
2023-04-19T08:08:00.950Z,14.99
2023-04-19T08:09:00.958Z,14.81
2023-04-19T08:10:01.018Z,15.19
2023-04-19T08:11:02.039Z,15.67
2023-04-19T08:12:00.923Z,15.69
2023-04-19T08:13:05.127Z,15.49
2023-04-19T08:14:26.860Z,15.59
2023-04-19T08:15:14.904Z,16.00
2023-04-19T08:18:00.857Z,16.76
2023-04-19T08:19:00.841Z,16.63
2023-04-19T08:20:00.828Z,16.73
2023-04-19T08:21:00.809Z,16.50
2023-04-19T08:22:00.783Z,16.56
2023-04-19T08:23:10.341Z,16.71
2023-04-19T08:24:01.766Z,16.98
2023-04-19T08:25:00.773Z,16.58
2023-04-19T08:26:00.753Z,16.78
2023-04-19T08:27:00.757Z,16.78
2023-04-19T08:28:00.745Z,16.68
2023-04-19T08:29:01.202Z,16.63
2023-04-19T08:30:00.686Z,16.64
2023-04-19T08:31:00.733Z,16.81
2023-04-19T08:32:00.735Z,17.59
2023-04-19T08:33:00.751Z,18.07
2023-04-19T08:34:00.692Z,18.20
2023-04-19T08:35:00.670Z,18.35
2023-04-19T08:36:00.636Z,18.10
2023-04-19T08:37:04.368Z,16.81
2023-04-19T08:38:01.992Z,16.81
2023-04-19T08:39:05.707Z,16.31
2023-04-19T08:40:01.649Z,15.92
2023-04-19T08:41:00.612Z,16.42
2023-04-19T08:42:05.952Z,16.71
2023-04-19T08:43:01.586Z,16.39
2023-04-19T08:44:00.565Z,16.70
2023-04-19T08:46:00.644Z,17.41
2023-04-19T08:47:00.523Z,17.82
2023-04-19T08:48:02.095Z,17.74
2023-04-19T08:49:00.512Z,17.90
2023-04-19T08:50:13.890Z,17.66
2023-04-19T08:51:05.536Z,17.01
2023-04-19T08:52:00.474Z,16.96
2023-04-19T08:53:09.012Z,16.88
2023-04-19T08:54:01.451Z,17.23
2023-04-19T08:55:00.446Z,17.25
2023-04-19T08:57:00.456Z,17.51
2023-04-19T08:58:00.396Z,18.14
2023-04-19T08:59:19.124Z,18.82
2023-04-19T09:00:01.492Z,19.47
2023-04-19T09:01:00.437Z,19.83
2023-04-19T09:02:00.519Z,19.13
2023-04-19T09:03:00.566Z,18.78
2023-04-19T09:04:10.263Z,17.93
2023-04-19T09:05:01.725Z,18.29
2023-04-19T09:06:00.422Z,18.10
2023-04-19T09:07:00.311Z,18.63
2023-04-19T09:08:00.295Z,18.69
2023-04-19T09:09:01.247Z,18.98
2023-04-19T09:10:03.410Z,18.08
2023-04-19T09:11:00.280Z,17.78
2023-04-19T09:12:00.329Z,17.55
2023-04-19T09:13:00.248Z,18.02
2023-04-19T09:14:00.232Z,17.66
2023-04-19T09:15:02.267Z,17.44
2023-04-19T09:16:00.247Z,17.49
2023-04-19T09:17:00.202Z,18.21
2023-04-19T09:18:00.256Z,18.67
2023-04-19T09:19:15.224Z,18.98
2023-04-19T09:20:01.168Z,19.26
2023-04-19T09:21:00.165Z,19.40
2023-04-19T09:22:00.152Z,19.55
2023-04-19T09:23:00.140Z,18.78
2023-04-19T09:24:01.873Z,18.69
2023-04-19T09:26:22.011Z,19.11
2023-04-19T09:27:01.087Z,19.46
2023-04-19T09:28:00.076Z,19.22
2023-04-19T09:29:00.079Z,19.21
2023-04-19T09:30:00.112Z,19.16
2023-04-19T09:31:15.112Z,18.95
2023-04-19T09:32:01.158Z,19.16
2023-04-19T09:33:00.054Z,19.41
2023-04-19T09:33:59.985Z,19.62
2023-04-19T09:35:00.002Z,19.78
2023-04-19T09:35:59.998Z,19.47
2023-04-19T09:37:09.006Z,18.63
2023-04-19T09:38:59.984Z,18.52
2023-04-19T09:39:59.930Z,18.76
2023-04-19T09:40:59.948Z,18.73
2023-04-19T09:41:59.921Z,18.52
2023-04-19T09:43:15.163Z,18.36
2023-04-19T09:44:15.612Z,18.27
2023-04-19T09:45:28.512Z,18.67
2023-04-19T09:46:00.852Z,18.82
2023-04-19T09:46:59.903Z,19.16
2023-04-19T09:47:59.917Z,19.04
2023-04-19T09:49:01.947Z,18.75
2023-04-19T09:50:00.783Z,18.60
2023-04-19T09:51:03.766Z,18.20
2023-04-19T09:52:00.808Z,18.25
2023-04-19T09:52:59.797Z,18.20
2023-04-19T09:53:59.783Z,17.96
2023-04-19T09:54:59.796Z,17.71
2023-04-19T09:56:02.700Z,17.93
2023-04-19T09:57:01.451Z,18.23
2023-04-19T09:57:59.734Z,18.12
2023-04-19T09:59:59.727Z,18.03
2023-04-19T10:01:10.696Z,18.29
2023-04-19T10:02:00.945Z,18.32
2023-04-19T10:02:59.742Z,18.41
2023-04-19T10:04:14.391Z,17.96
2023-04-19T10:05:16.426Z,17.89
2023-04-19T10:06:10.261Z,17.81
2023-04-19T10:07:25.353Z,17.90
2023-04-19T10:08:00.726Z,18.33
2023-04-19T10:08:59.623Z,18.14
2023-04-19T10:10:11.914Z,18.21
2023-04-19T10:11:00.625Z,18.35
2023-04-19T10:12:07.856Z,18.63
2023-04-19T10:13:18.293Z,18.51
2023-04-19T10:14:00.575Z,18.81
2023-04-19T10:14:59.565Z,18.95
2023-04-19T10:16:11.646Z,18.65
2023-04-19T10:17:00.620Z,18.60
2023-04-19T10:17:59.568Z,18.63
2023-04-19T10:18:59.544Z,18.84
2023-04-19T10:19:59.503Z,18.94
2023-04-19T10:20:59.517Z,19.36
2023-04-19T10:21:59.499Z,19.04
2023-04-19T10:22:59.497Z,18.48
2023-04-19T10:23:59.470Z,17.89
2023-04-19T10:24:59.472Z,17.58
2023-04-19T10:25:59.474Z,17.48
2023-04-19T10:26:59.470Z,17.03
2023-04-19T10:27:59.416Z,17.26
2023-04-19T10:28:59.420Z,17.44
2023-04-19T10:29:59.428Z,17.52
2023-04-19T10:30:59.394Z,17.79
2023-04-19T10:31:59.490Z,18.08
2023-04-19T10:32:59.831Z,17.90
2023-04-19T10:33:59.373Z,17.40
2023-04-19T10:34:59.347Z,17.14
2023-04-19T10:35:59.340Z,17.31
2023-04-19T10:36:59.305Z,17.64
2023-04-19T10:37:59.324Z,17.70
2023-04-19T10:38:59.303Z,17.38
2023-04-19T10:39:59.295Z,17.30
2023-04-19T10:40:59.259Z,17.12
2023-04-19T10:41:59.443Z,17.08
2023-04-19T10:42:59.270Z,16.93
2023-04-19T10:43:59.248Z,16.66
2023-04-19T10:44:59.241Z,16.17
2023-04-19T10:45:59.241Z,16.21
2023-04-19T10:46:59.208Z,16.23
2023-04-19T10:47:59.245Z,16.28
2023-04-19T10:48:59.203Z,16.14
2023-04-19T10:49:59.206Z,16.02
2023-04-19T10:50:59.176Z,16.01
2023-04-19T10:51:59.175Z,15.90
2023-04-19T10:52:59.154Z,15.89
2023-04-19T10:53:59.170Z,15.75
2023-04-19T10:54:59.132Z,15.78
2023-04-19T10:55:59.117Z,15.60
2023-04-19T10:56:59.261Z,15.43
2023-04-19T10:57:59.102Z,15.36
2023-04-19T10:58:59.116Z,15.39
2023-04-19T10:59:59.094Z,15.50
2023-04-19T11:00:59.120Z,15.50
2023-04-19T11:01:59.238Z,15.60
2023-04-19T11:02:59.279Z,15.54
2023-04-19T11:03:59.305Z,15.59
2023-04-19T11:04:59.010Z,15.75
2023-04-19T11:05:59.030Z,15.96
2023-04-19T11:06:59.000Z,16.04
2023-04-19T11:07:59.004Z,16.33
2023-04-19T11:08:58.978Z,16.34
2023-04-19T11:09:58.975Z,16.41
2023-04-19T11:10:58.955Z,16.41
2023-04-19T11:11:58.933Z,16.34
2023-04-19T11:12:58.942Z,16.28
2023-04-19T11:13:58.923Z,16.33
2023-04-19T11:14:58.930Z,16.35
2023-04-19T11:15:58.951Z,16.42
2023-04-19T11:16:59.021Z,16.52
2023-04-19T11:18:11.938Z,16.75
2023-04-19T11:18:59.886Z,16.86
2023-04-19T11:19:58.901Z,16.83
2023-04-19T11:20:58.877Z,16.68
2023-04-19T11:21:58.869Z,16.68
2023-04-19T11:22:58.833Z,16.83
2023-04-19T11:23:58.834Z,17.00
2023-04-19T11:24:58.820Z,16.76
2023-04-19T11:25:58.807Z,16.68
2023-04-19T11:26:58.791Z,16.45
2023-04-19T11:27:58.785Z,16.60
2023-04-19T11:28:58.774Z,16.61
2023-04-19T11:29:58.770Z,16.78
2023-04-19T11:30:58.812Z,16.91
2023-04-19T11:31:58.740Z,16.98
2023-04-19T11:32:58.795Z,17.14
2023-04-19T11:33:58.719Z,17.16
2023-04-19T11:34:58.786Z,17.07
2023-04-19T11:35:58.708Z,17.14
2023-04-19T11:36:58.676Z,17.12
2023-04-19T11:37:58.678Z,17.31
2023-04-19T11:38:58.663Z,17.38
2023-04-19T11:39:58.699Z,17.48
2023-04-19T11:40:58.634Z,17.46
2023-04-19T11:41:58.644Z,17.46
2023-04-19T11:42:58.630Z,16.88
2023-04-19T11:43:58.622Z,16.93
2023-04-19T11:44:58.608Z,17.08
2023-04-19T11:45:58.602Z,16.82
2023-04-19T11:46:58.690Z,16.85
2023-04-19T11:47:58.635Z,17.14
2023-04-19T11:48:59.524Z,17.40
2023-04-19T11:49:58.573Z,17.55
2023-04-19T11:50:58.559Z,17.82
2023-04-19T11:51:58.535Z,17.96
2023-04-19T11:52:58.501Z,17.90
2023-04-19T11:53:58.528Z,17.82
2023-04-19T11:54:58.477Z,17.84
2023-04-19T11:55:58.540Z,17.95
2023-04-19T11:56:58.501Z,18.17
2023-04-19T11:57:58.514Z,18.11
2023-04-19T11:58:58.445Z,17.82
2023-04-19T11:59:58.458Z,17.56
2023-04-19T12:00:58.518Z,17.66
2023-04-19T12:01:58.489Z,17.72
2023-04-19T12:02:58.635Z,17.84
2023-04-19T12:03:58.655Z,18.05
2023-04-19T12:04:58.649Z,17.99
2023-04-19T12:05:58.637Z,17.92
2023-04-19T12:06:58.393Z,18.11
2023-04-19T12:07:58.363Z,18.29
2023-04-19T12:08:58.367Z,18.44
2023-04-19T12:09:58.324Z,18.58
2023-04-19T12:10:58.316Z,18.66
2023-04-19T12:11:58.325Z,18.51
2023-04-19T12:12:58.290Z,18.52
2023-04-19T12:13:58.335Z,18.55
2023-04-19T12:14:58.291Z,18.82
2023-04-19T12:15:58.280Z,19.13
2023-04-19T12:16:58.450Z,19.19
2023-04-19T12:17:58.312Z,19.21
2023-04-19T12:18:59.200Z,19.25
2023-04-19T12:19:58.270Z,19.21
2023-04-19T12:21:00.157Z,19.22
2023-04-19T12:21:58.225Z,19.16
2023-04-19T12:22:58.206Z,19.13
2023-04-19T12:23:58.213Z,19.04
2023-04-19T12:24:58.185Z,19.13
2023-04-19T12:25:58.164Z,19.31
2023-04-19T12:27:04.664Z,19.23
2023-04-19T12:27:59.175Z,19.21
2023-04-19T12:28:58.146Z,19.19
2023-04-19T12:29:58.165Z,19.11
2023-04-19T12:30:58.105Z,19.19
2023-04-19T12:31:58.173Z,19.31
2023-04-19T12:32:58.215Z,19.31
2023-04-19T12:33:58.105Z,19.32
2023-04-19T12:34:58.066Z,19.37
2023-04-19T12:35:58.089Z,19.55
2023-04-19T12:36:58.118Z,19.66
2023-04-19T12:37:58.031Z,19.63
2023-04-19T12:38:58.026Z,19.55
2023-04-19T12:39:58.028Z,19.46
2023-04-19T12:40:57.994Z,19.26
2023-04-19T12:41:58.014Z,18.85
2023-04-19T12:42:57.968Z,19.02
2023-04-19T12:43:57.991Z,18.82
2023-04-19T12:44:57.966Z,19.07
2023-04-19T12:45:58.050Z,18.78
2023-04-19T12:46:58.089Z,18.42
2023-04-19T12:47:58.971Z,18.07
2023-04-19T12:48:57.925Z,17.55
2023-04-19T12:49:57.938Z,17.44
2023-04-19T12:50:57.905Z,17.75
2023-04-19T12:51:57.885Z,18.08
2023-04-19T12:52:57.883Z,18.54
2023-04-19T12:53:57.873Z,18.84
2023-04-19T12:54:57.866Z,19.19
2023-04-19T12:55:57.860Z,19.08
2023-04-19T12:56:57.846Z,19.06
2023-04-19T12:57:57.829Z,18.91
2023-04-19T12:58:57.805Z,18.82
2023-04-19T12:59:57.804Z,18.85
2023-04-19T13:00:57.807Z,19.18
2023-04-19T13:01:57.912Z,19.11
2023-04-19T13:02:57.873Z,18.98
2023-04-19T13:03:59.387Z,19.04
2023-04-19T13:04:57.794Z,19.13
2023-04-19T13:05:57.747Z,19.08
2023-04-19T13:06:57.726Z,19.28
2023-04-19T13:07:57.768Z,19.37
2023-04-19T13:09:01.037Z,19.28
2023-04-19T13:09:57.702Z,19.41
2023-04-19T13:10:57.690Z,19.46
2023-04-19T13:11:57.670Z,19.37
2023-04-19T13:12:57.662Z,19.04
2023-04-19T13:13:57.658Z,18.58